Terminal Aerodrome Forecast
Issued by NWS

Home | Current Version | Previous Version | Graphics & Text | Print | Product List | Glossary On
Versions: 1 2 3 4 5 6 7 8 9 10 11 12 13 14 15 16 17 18 19 20
347
FTUS42 KMHX 252335
TAFISO
TAF
KISO 252335Z 2600/2624 VRB03KT P6SM SCT020 BKN040
      TEMPO 2600/2601 -RA
     FM260300 VRB03KT P6SM BKN020
     FM260500 VRB03KT P6SM BKN007
     FM261100 VRB03KT P6SM BKN010
     FM261500 26007KT P6SM SCT020
      AMD LTD TO CLD VIS AND WIND=

USA.gov is the U.S. government's official web portal to all federal, state and local government web resources and services.